createdAt,value
2018-09-25T00:02:13.269Z,4.70
2018-09-25T00:04:48.443Z,4.50
2018-09-25T00:07:23.824Z,4.07
2018-09-25T00:09:59.422Z,4.10
2018-09-25T00:12:34.991Z,4.13
2018-09-25T00:15:10.222Z,4.43
2018-09-25T00:17:46.187Z,5.03
2018-09-25T00:20:21.228Z,4.60
2018-09-25T00:22:57.796Z,4.20
2018-09-25T00:25:35.726Z,4.70
2018-09-25T00:28:12.265Z,4.67
2018-09-25T00:30:48.469Z,4.40
2018-09-25T00:33:24.218Z,3.97
2018-09-25T00:35:59.943Z,4.17
2018-09-25T00:38:36.270Z,4.30
2018-09-25T00:41:11.988Z,4.60
2018-09-25T00:43:47.326Z,4.20
2018-09-25T00:46:22.435Z,4.20
2018-09-25T00:48:58.246Z,3.97
2018-09-25T00:51:33.332Z,4.37
2018-09-25T00:54:08.506Z,3.93
2018-09-25T00:56:43.574Z,3.90
2018-09-25T00:59:19.068Z,4.20
2018-09-25T01:01:54.190Z,3.90
2018-09-25T01:04:29.197Z,3.70
2018-09-25T01:07:04.378Z,4.37
2018-09-25T01:09:40.028Z,4.30
2018-09-25T01:12:16.981Z,3.77
2018-09-25T01:14:53.516Z,4.20
2018-09-25T01:17:29.714Z,4.27
2018-09-25T01:20:06.294Z,4.10
2018-09-25T01:22:41.985Z,4.03
2018-09-25T01:25:17.388Z,3.90
2018-09-25T01:27:52.748Z,4.60
2018-09-25T01:30:28.619Z,3.80
2018-09-25T01:33:04.076Z,4.17
2018-09-25T01:35:39.929Z,3.70
2018-09-25T01:38:15.152Z,3.60
2018-09-25T01:40:51.043Z,3.77
2018-09-25T01:43:26.340Z,3.77
2018-09-25T01:46:02.556Z,3.80
2018-09-25T01:48:38.151Z,3.90
2018-09-25T01:51:13.424Z,4.73
2018-09-25T01:53:48.905Z,3.87
2018-09-25T01:56:24.986Z,4.00
2018-09-25T01:59:00.607Z,4.20
2018-09-25T02:01:36.599Z,4.23
2018-09-25T02:04:12.477Z,3.97
2018-09-25T02:06:48.347Z,3.83
2018-09-25T02:09:23.550Z,4.60
2018-09-25T02:11:59.187Z,4.30
2018-09-25T02:14:34.942Z,4.17
2018-09-25T02:17:10.763Z,4.33
2018-09-25T02:19:46.272Z,3.87
2018-09-25T02:22:22.293Z,4.27
2018-09-25T02:24:58.980Z,3.80
2018-09-25T02:27:34.519Z,3.67
2018-09-25T02:30:10.633Z,4.10
2018-09-25T02:32:47.441Z,4.30
2018-09-25T02:35:24.026Z,4.40
2018-09-25T02:37:59.931Z,3.77
2018-09-25T02:40:35.663Z,4.50
2018-09-25T02:43:11.409Z,3.77
2018-09-25T02:45:47.215Z,4.00
2018-09-25T02:48:22.603Z,7.40
2018-09-25T02:50:58.208Z,4.90
2018-09-25T02:53:33.265Z,4.37
2018-09-25T02:56:09.298Z,4.10
2018-09-25T02:58:44.416Z,3.80
2018-09-25T03:01:20.419Z,4.00
2018-09-25T03:03:55.587Z,4.30
2018-09-25T03:06:31.507Z,4.53
2018-09-25T03:09:07.713Z,4.23
2018-09-25T03:11:43.804Z,4.40
2018-09-25T03:14:19.234Z,4.17
2018-09-25T03:16:54.948Z,3.90
2018-09-25T03:19:30.171Z,3.70
2018-09-25T03:22:06.368Z,4.00
2018-09-25T03:24:42.072Z,4.30
2018-09-25T03:27:18.826Z,3.50
2018-09-25T03:29:55.293Z,3.70
2018-09-25T03:32:30.628Z,3.50
2018-09-25T03:35:06.789Z,3.63
2018-09-25T03:37:43.142Z,3.73
2018-09-25T03:40:18.128Z,3.70
2018-09-25T03:42:53.351Z,3.43
2018-09-25T03:45:28.942Z,4.10
2018-09-25T03:48:04.477Z,4.33
2018-09-25T03:50:39.897Z,4.50
2018-09-25T03:53:15.706Z,3.90
2018-09-25T03:55:51.264Z,4.13
2018-09-25T03:58:26.985Z,3.97
2018-09-25T04:01:02.703Z,4.47
2018-09-25T04:03:38.775Z,4.87
2018-09-25T04:06:15.161Z,5.20
2018-09-25T04:08:50.621Z,4.80
2018-09-25T04:11:26.423Z,4.20
2018-09-25T04:14:01.831Z,4.40
2018-09-25T04:16:37.554Z,4.00
2018-09-25T04:19:13.103Z,4.17
2018-09-25T04:21:48.627Z,4.40
2018-09-25T04:24:24.380Z,4.47
2018-09-25T04:27:00.595Z,3.77
2018-09-25T04:29:36.028Z,4.50
2018-09-25T04:32:11.251Z,4.90
2018-09-25T04:34:46.295Z,4.33
2018-09-25T04:37:22.390Z,5.20
2018-09-25T04:39:57.788Z,4.50
2018-09-25T04:42:33.506Z,3.70
2018-09-25T04:45:08.926Z,5.50
2018-09-25T04:47:45.068Z,4.80
2018-09-25T04:50:20.884Z,4.50
2018-09-25T04:52:56.274Z,4.93
2018-09-25T04:55:32.307Z,5.20
2018-09-25T04:58:07.551Z,5.20
2018-09-25T05:00:43.698Z,4.70
2018-09-25T05:03:19.446Z,5.30
2018-09-25T05:05:54.299Z,4.40
2018-09-25T05:08:30.375Z,4.13
2018-09-25T05:11:05.898Z,5.47
2018-09-25T05:13:42.185Z,5.20
2018-09-25T05:16:18.274Z,4.77
2018-09-25T05:18:53.981Z,4.80
2018-09-25T05:21:29.940Z,4.80
2018-09-25T05:24:05.472Z,4.60
2018-09-25T05:26:41.910Z,4.83
2018-09-25T05:29:18.080Z,5.17
2018-09-25T05:31:54.031Z,4.73
2018-09-25T05:34:29.089Z,5.27
2018-09-25T05:37:05.518Z,5.57
2018-09-25T05:39:41.914Z,6.03
2018-09-25T05:42:17.428Z,5.70
2018-09-25T05:44:53.043Z,5.93
2018-09-25T05:47:29.261Z,6.10
2018-09-25T05:50:05.770Z,5.33
2018-09-25T05:52:41.463Z,5.20
2018-09-25T05:55:17.417Z,4.90
2018-09-25T05:57:53.155Z,5.30
2018-09-25T06:00:28.833Z,5.10
2018-09-25T06:03:05.284Z,5.27
2018-09-25T06:05:40.948Z,5.03
2018-09-25T06:08:16.841Z,6.20
2018-09-25T06:10:52.334Z,5.37
2018-09-25T06:13:28.144Z,6.07
2018-09-25T06:16:04.092Z,6.60
2018-09-25T06:18:39.754Z,5.53
2018-09-25T06:21:15.233Z,5.90
2018-09-25T06:23:52.381Z,6.17
2018-09-25T06:26:27.950Z,6.27
2018-09-25T06:29:04.231Z,6.70
2018-09-25T06:31:40.630Z,6.93
2018-09-25T06:34:16.720Z,6.63
2018-09-25T06:36:53.034Z,6.60
2018-09-25T06:39:28.298Z,6.93
2018-09-25T06:42:04.316Z,8.03
2018-09-25T06:44:39.831Z,8.00
2018-09-25T06:47:16.390Z,8.60
2018-09-25T06:49:52.156Z,8.03
2018-09-25T06:52:28.515Z,8.50
2018-09-25T06:55:04.004Z,8.93
2018-09-25T06:57:39.961Z,9.17
2018-09-25T07:00:15.341Z,9.87
2018-09-25T07:02:51.364Z,10.70
2018-09-25T07:05:26.851Z,10.40
2018-09-25T07:08:03.579Z,10.47
2018-09-25T07:10:40.205Z,9.90
2018-09-25T07:13:16.036Z,10.90
2018-09-25T07:15:51.669Z,10.73
2018-09-25T07:18:27.307Z,12.00
2018-09-25T07:21:03.332Z,10.70
2018-09-25T07:23:39.255Z,11.53
2018-09-25T07:26:14.627Z,10.97
2018-09-25T07:28:49.915Z,12.47
2018-09-25T07:31:25.593Z,11.33
2018-09-25T07:34:02.011Z,11.67
2018-09-25T07:36:37.663Z,12.47
2018-09-25T07:39:15.598Z,13.27
2018-09-25T07:41:50.547Z,12.97
2018-09-25T07:44:27.008Z,13.50
2018-09-25T07:47:03.511Z,13.23
2018-09-25T07:49:39.993Z,12.03
2018-09-25T07:52:16.599Z,12.07
2018-09-25T07:54:52.168Z,13.07
2018-09-25T07:57:28.242Z,12.70
2018-09-25T08:00:03.979Z,12.57
2018-09-25T08:02:39.835Z,12.50
2018-09-25T08:05:16.003Z,12.57
2018-09-25T08:07:51.836Z,12.40
2018-09-25T08:10:27.113Z,12.23
2018-09-25T08:13:02.704Z,12.30
2018-09-25T08:15:38.506Z,12.47
2018-09-25T08:18:14.380Z,11.00
2018-09-25T08:20:50.184Z,11.93
2018-09-25T08:23:25.920Z,12.67
2018-09-25T08:26:01.767Z,13.30
2018-09-25T08:28:37.441Z,14.03
2018-09-25T08:31:13.757Z,13.47
2018-09-25T08:33:50.438Z,13.37
2018-09-25T08:36:26.602Z,12.33
2018-09-25T08:39:03.024Z,13.30
2018-09-25T08:41:38.591Z,12.20
2018-09-25T08:44:14.112Z,12.13
2018-09-25T08:46:49.439Z,11.63
2018-09-25T08:49:24.711Z,12.40
2018-09-25T08:52:00.329Z,19.00
2018-09-25T08:54:37.153Z,11.83
2018-09-25T08:57:13.203Z,11.97
2018-09-25T08:59:49.053Z,11.57
2018-09-25T09:02:24.284Z,10.30
2018-09-25T09:05:00.111Z,11.20
2018-09-25T09:07:35.472Z,11.00
2018-09-25T09:10:11.020Z,10.23
2018-09-25T09:12:53.572Z,13.13
2018-09-25T09:15:30.300Z,11.70
2018-09-25T09:18:05.920Z,11.33
2018-09-25T09:20:41.923Z,12.00
2018-09-25T09:23:17.798Z,12.57
2018-09-25T09:25:53.477Z,11.67
2018-09-25T09:28:29.838Z,11.53
2018-09-25T09:31:05.690Z,11.80
2018-09-25T09:33:41.787Z,10.57
2018-09-25T09:36:17.979Z,10.37
2018-09-25T09:38:53.464Z,11.07
2018-09-25T09:41:29.824Z,11.30
2018-09-25T09:44:05.550Z,11.77
2018-09-25T09:46:42.026Z,11.70
2018-09-25T09:49:17.915Z,11.40
2018-09-25T09:51:53.396Z,12.70
2018-09-25T09:54:28.744Z,11.10
2018-09-25T09:57:05.014Z,10.80
2018-09-25T09:59:41.249Z,11.80
2018-09-25T10:02:16.809Z,11.20
2018-09-25T10:04:52.268Z,10.80
2018-09-25T10:07:28.118Z,11.73
2018-09-25T10:10:03.586Z,11.93
2018-09-25T10:12:39.509Z,12.43
2018-09-25T10:15:15.063Z,12.17
2018-09-25T10:17:50.770Z,11.87
2018-09-25T10:20:25.798Z,11.90
2018-09-25T10:23:01.827Z,12.33
2018-09-25T10:25:37.741Z,12.90
2018-09-25T10:28:15.340Z,11.73
2018-09-25T10:30:50.862Z,12.10
2018-09-25T10:33:25.812Z,11.30
2018-09-25T10:36:01.327Z,11.80
2018-09-25T10:38:36.673Z,13.27
2018-09-25T10:41:12.005Z,11.67
2018-09-25T10:43:47.740Z,11.90
2018-09-25T10:46:22.867Z,11.07
2018-09-25T10:48:58.902Z,11.90
2018-09-25T10:51:34.628Z,11.43
2018-09-25T10:54:09.936Z,11.50
2018-09-25T10:56:45.176Z,11.30
2018-09-25T10:59:21.414Z,12.33
2018-09-25T11:01:57.509Z,11.30
2018-09-25T11:04:33.165Z,11.03
2018-09-25T11:07:08.916Z,11.63
2018-09-25T11:09:45.143Z,11.20
2018-09-25T11:12:20.495Z,11.20
2018-09-25T11:14:56.343Z,11.40
2018-09-25T11:17:32.316Z,11.10
2018-09-25T11:20:07.705Z,12.27
2018-09-25T11:22:43.285Z,10.83
2018-09-25T11:25:18.611Z,11.80
2018-09-25T11:27:53.789Z,11.33
2018-09-25T11:30:29.159Z,11.47
2018-09-25T11:33:05.029Z,11.23
2018-09-25T11:35:40.992Z,11.33
2018-09-25T11:38:16.360Z,11.23
2018-09-25T11:40:52.685Z,11.10
2018-09-25T11:43:27.717Z,11.97
2018-09-25T11:46:03.203Z,11.50
2018-09-25T11:48:38.657Z,11.77
2018-09-25T11:51:14.349Z,11.00
2018-09-25T11:53:49.913Z,11.60
2018-09-25T11:56:26.018Z,11.33
2018-09-25T11:59:01.385Z,11.53
2018-09-25T12:01:36.575Z,11.83
2018-09-25T12:04:12.392Z,11.60
2018-09-25T12:06:47.389Z,10.20
2018-09-25T12:09:22.977Z,10.67
2018-09-25T12:11:58.793Z,10.77
2018-09-25T12:14:34.424Z,10.80
2018-09-25T12:17:09.468Z,10.57
2018-09-25T12:19:45.223Z,10.80
2018-09-25T12:22:20.805Z,10.70
2018-09-25T12:24:55.909Z,10.10
2018-09-25T12:27:31.746Z,9.60
2018-09-25T12:30:07.394Z,12.90
2018-09-25T12:32:43.797Z,10.60
2018-09-25T12:35:19.261Z,10.40
2018-09-25T12:37:54.787Z,10.80
2018-09-25T12:40:30.307Z,10.40
2018-09-25T12:43:05.408Z,10.50
2018-09-25T12:48:30.272Z,10.83
2018-09-25T12:51:12.188Z,11.10
2018-09-25T12:53:50.165Z,10.20
2018-09-25T12:56:25.898Z,10.17
2018-09-25T12:59:04.196Z,10.67
2018-09-25T13:01:39.519Z,10.27
2018-09-25T13:04:15.532Z,9.57
2018-09-25T13:06:52.662Z,9.80
2018-09-25T13:09:32.016Z,10.27
2018-09-25T13:12:08.065Z,9.63
2018-09-25T13:14:43.100Z,9.30
2018-09-25T13:17:19.109Z,10.07
2018-09-25T13:19:54.363Z,10.00
2018-09-25T13:22:30.116Z,11.20
2018-09-25T13:25:05.842Z,11.30
2018-09-25T13:27:41.243Z,10.80
2018-09-25T13:30:16.696Z,10.43
2018-09-25T13:32:52.035Z,10.40
2018-09-25T13:35:27.983Z,10.63
2018-09-25T13:38:04.501Z,10.60
2018-09-25T13:40:40.464Z,10.07
2018-09-25T13:43:16.607Z,9.27
2018-09-25T13:45:52.191Z,9.87
2018-09-25T13:48:27.574Z,10.40
2018-09-25T13:51:03.108Z,10.63
2018-09-25T13:53:39.511Z,10.30
2018-09-25T13:56:14.907Z,10.60
2018-09-25T13:58:51.027Z,10.23
2018-09-25T14:01:27.196Z,10.60
2018-09-25T14:04:02.823Z,10.37
2018-09-25T14:06:38.554Z,9.90
2018-09-25T14:09:16.436Z,10.23
2018-09-25T14:11:51.229Z,10.20
2018-09-25T14:14:26.829Z,37.67
2018-09-25T14:17:03.350Z,12.60
2018-09-25T14:19:38.942Z,10.67
2018-09-25T14:22:15.046Z,10.77
2018-09-25T14:24:50.669Z,11.30
2018-09-25T14:27:26.756Z,11.13
2018-09-25T14:30:02.358Z,10.23
2018-09-25T14:32:38.720Z,11.17
2018-09-25T14:35:14.549Z,11.00
2018-09-25T14:37:50.455Z,11.03
2018-09-25T14:40:26.135Z,10.37
2018-09-25T14:43:01.758Z,10.80
2018-09-25T14:45:37.643Z,10.10
2018-09-25T14:48:13.141Z,10.60
2018-09-25T14:50:48.955Z,10.80
2018-09-25T14:53:24.938Z,10.83
2018-09-25T14:56:00.527Z,10.30
2018-09-25T14:58:36.481Z,11.10
2018-09-25T15:01:12.752Z,10.63
2018-09-25T15:03:48.804Z,10.70
2018-09-25T15:06:25.728Z,10.00
2018-09-25T15:09:01.408Z,10.20
2018-09-25T15:11:37.121Z,10.43
2018-09-25T15:14:13.528Z,9.70
2018-09-25T15:16:48.424Z,11.20
2018-09-25T15:19:26.190Z,9.97
2018-09-25T15:22:02.396Z,9.90
2018-09-25T15:24:38.282Z,10.07
2018-09-25T15:27:14.206Z,10.50
2018-09-25T15:29:49.574Z,10.10
2018-09-25T15:32:25.677Z,11.10
2018-09-25T15:35:02.035Z,10.37
2018-09-25T15:37:37.762Z,9.30
2018-09-25T15:40:13.218Z,10.13
2018-09-25T15:42:49.217Z,11.50
2018-09-25T15:45:24.992Z,11.47
2018-09-25T15:48:00.733Z,10.70
2018-09-25T15:50:36.209Z,12.03
2018-09-25T15:53:12.515Z,11.07
2018-09-25T15:55:47.813Z,11.40
2018-09-25T15:58:23.578Z,11.17
2018-09-25T16:00:59.208Z,10.87
2018-09-25T16:03:34.109Z,10.93
2018-09-25T16:06:10.295Z,10.60
2018-09-25T16:08:46.530Z,10.30
2018-09-25T16:11:22.425Z,9.93
2018-09-25T16:13:58.147Z,9.77
2018-09-25T16:16:33.481Z,9.77
2018-09-25T16:19:09.459Z,10.40
2018-09-25T16:21:44.687Z,11.07
2018-09-25T16:24:20.536Z,10.60
2018-09-25T16:26:55.890Z,10.83
2018-09-25T16:29:31.530Z,9.97
2018-09-25T16:32:07.765Z,9.73
2018-09-25T16:34:43.443Z,10.33
2018-09-25T16:37:19.997Z,10.60
2018-09-25T16:39:55.384Z,9.70
2018-09-25T16:42:30.829Z,11.00
2018-09-25T16:45:06.247Z,10.00
2018-09-25T16:47:42.150Z,10.97
2018-09-25T16:50:17.975Z,9.40
2018-09-25T16:52:53.482Z,10.30
2018-09-25T16:55:29.380Z,9.30
2018-09-25T16:58:04.746Z,8.50
2018-09-25T17:00:40.447Z,8.43
2018-09-25T17:03:16.924Z,9.20
2018-09-25T17:05:53.128Z,8.53
2018-09-25T17:08:28.551Z,9.43
2018-09-25T17:11:04.697Z,8.50
2018-09-25T17:13:39.994Z,9.10
2018-09-25T17:16:16.128Z,9.50
2018-09-25T17:18:51.501Z,8.93
2018-09-25T17:21:27.368Z,12.20
2018-09-25T17:24:03.864Z,13.50
2018-09-25T17:26:46.012Z,12.93
2018-09-25T17:29:22.500Z,12.00
2018-09-25T17:31:57.959Z,10.27
2018-09-25T17:34:33.529Z,9.60
2018-09-25T17:37:09.462Z,8.83
2018-09-25T17:39:44.626Z,12.10
2018-09-25T17:42:20.045Z,14.77
2018-09-25T17:44:55.409Z,17.83
2018-09-25T17:47:30.534Z,20.60
2018-09-25T17:50:05.885Z,21.37
2018-09-25T17:52:40.808Z,17.43
2018-09-25T17:55:16.507Z,17.97
2018-09-25T17:57:51.678Z,18.83
2018-09-25T18:00:27.107Z,16.50
2018-09-25T18:03:02.138Z,15.57
2018-09-25T18:05:37.852Z,15.80
2018-09-25T18:08:13.578Z,15.27
2018-09-25T18:10:48.714Z,14.10
2018-09-25T18:13:23.809Z,13.80
2018-09-25T18:15:59.405Z,11.93
2018-09-25T18:18:34.428Z,13.60
2018-09-25T18:21:09.799Z,9.93
2018-09-25T18:23:45.126Z,10.10
2018-09-25T18:26:20.272Z,9.33
2018-09-25T18:28:56.186Z,11.77
2018-09-25T18:31:32.100Z,9.60
2018-09-25T18:34:08.504Z,9.60
2018-09-25T18:36:44.502Z,8.77
2018-09-25T18:39:20.088Z,11.10
2018-09-25T18:41:56.229Z,9.23
2018-09-25T18:44:32.015Z,9.67
2018-09-25T18:47:09.012Z,11.20
2018-09-25T18:49:44.782Z,11.63
2018-09-25T18:52:20.680Z,11.13
2018-09-25T18:54:57.123Z,12.70
2018-09-25T18:57:32.992Z,13.93
2018-09-25T19:00:09.578Z,12.20
2018-09-25T19:02:45.383Z,16.20
2018-09-25T19:05:21.190Z,14.00
2018-09-25T19:07:57.051Z,12.40
2018-09-25T19:10:33.422Z,12.77
2018-09-25T19:13:09.507Z,14.37
2018-09-25T19:15:45.946Z,13.07
2018-09-25T19:18:22.799Z,12.20
2018-09-25T19:20:58.898Z,12.00
2018-09-25T19:23:35.131Z,11.60
2018-09-25T19:26:13.460Z,12.17
2018-09-25T19:28:52.181Z,12.00
2018-09-25T19:31:28.098Z,11.17
2018-09-25T19:34:04.142Z,10.70
2018-09-25T19:36:40.340Z,10.93
2018-09-25T19:39:16.737Z,11.50
2018-09-25T19:41:53.064Z,10.50
2018-09-25T19:44:31.294Z,11.50
2018-09-25T19:47:07.239Z,11.00
2018-09-25T19:49:47.284Z,11.20
2018-09-25T19:52:23.562Z,11.43
2018-09-25T19:54:59.732Z,13.43
2018-09-25T19:57:35.679Z,14.23
2018-09-25T20:00:11.641Z,14.70
2018-09-25T20:02:47.604Z,14.97
2018-09-25T20:05:23.223Z,13.83
2018-09-25T20:07:59.419Z,12.63
2018-09-25T20:10:35.327Z,14.33
2018-09-25T20:15:55.927Z,11.33
2018-09-25T20:18:32.098Z,11.90
2018-09-25T20:21:08.262Z,12.37
2018-09-25T20:23:45.102Z,10.60
2018-09-25T20:26:21.880Z,9.70
2018-09-25T20:28:58.064Z,10.40
2018-09-25T20:31:34.475Z,10.60
2018-09-25T20:34:11.793Z,13.60
2018-09-25T20:36:48.714Z,13.07
2018-09-25T20:39:25.271Z,12.30
2018-09-25T20:42:02.817Z,11.73
2018-09-25T20:44:39.404Z,11.60
2018-09-25T20:47:15.194Z,12.50
2018-09-25T20:49:51.770Z,12.80
2018-09-25T20:52:27.507Z,11.53
2018-09-25T20:55:03.235Z,12.90
2018-09-25T20:57:38.916Z,11.30
2018-09-25T21:00:15.088Z,13.43
2018-09-25T21:02:50.870Z,13.10
2018-09-25T21:05:27.060Z,13.97
2018-09-25T21:08:03.029Z,14.33
2018-09-25T21:10:38.522Z,14.20
2018-09-25T21:13:14.389Z,14.40
2018-09-25T21:15:49.785Z,14.27
2018-09-25T21:18:25.603Z,13.47
2018-09-25T21:21:01.461Z,12.47
2018-09-25T21:23:37.501Z,12.70
2018-09-25T21:26:13.393Z,12.90
2018-09-25T21:28:49.318Z,12.93
2018-09-25T21:31:25.520Z,14.10
2018-09-25T21:34:01.319Z,14.20
2018-09-25T21:36:36.770Z,14.30
2018-09-25T21:39:14.975Z,14.43
2018-09-25T21:41:50.760Z,14.00
2018-09-25T21:44:27.084Z,14.67
2018-09-25T21:47:03.477Z,13.70
2018-09-25T21:49:38.951Z,14.20
2018-09-25T21:52:15.486Z,13.83
2018-09-25T21:54:51.143Z,14.83
2018-09-25T21:57:27.278Z,13.77
2018-09-25T22:00:03.438Z,15.07
2018-09-25T22:02:40.827Z,14.47
2018-09-25T22:05:16.496Z,14.30
2018-09-25T22:07:52.309Z,13.30
2018-09-25T22:10:27.594Z,14.70
2018-09-25T22:13:03.377Z,13.30
2018-09-25T22:15:38.857Z,12.73
2018-09-25T22:18:14.304Z,14.77
2018-09-25T22:20:50.069Z,13.63
2018-09-25T22:23:26.185Z,14.67
2018-09-25T22:26:01.936Z,13.00
2018-09-25T22:28:38.191Z,13.90
2018-09-25T22:31:14.026Z,14.47
2018-09-25T22:33:49.346Z,13.00
2018-09-25T22:36:25.423Z,13.20
2018-09-25T22:39:01.478Z,13.80
2018-09-25T22:41:37.316Z,13.47
2018-09-25T22:44:12.931Z,12.20
2018-09-25T22:46:48.275Z,12.30
2018-09-25T22:49:24.187Z,13.47
2018-09-25T22:52:00.266Z,11.77
2018-09-25T22:54:36.224Z,12.40
2018-09-25T22:57:12.449Z,12.10
2018-09-25T22:59:48.388Z,12.27
2018-09-25T23:02:24.210Z,11.70
2018-09-25T23:05:00.541Z,12.13
2018-09-25T23:07:36.367Z,12.50
2018-09-25T23:10:12.501Z,12.50
2018-09-25T23:12:48.505Z,12.30
2018-09-25T23:15:23.607Z,12.70
2018-09-25T23:17:59.442Z,13.20
2018-09-25T23:20:35.382Z,13.47
2018-09-25T23:23:11.418Z,13.50
2018-09-25T23:25:47.188Z,12.83
2018-09-25T23:28:23.383Z,12.90
2018-09-25T23:30:59.009Z,12.20
2018-09-25T23:33:35.786Z,11.53
2018-09-25T23:36:11.867Z,12.77
2018-09-25T23:38:47.828Z,12.33
2018-09-25T23:41:22.724Z,13.33
2018-09-25T23:44:13.381Z,12.20
2018-09-25T23:47:47.926Z,10.63
2018-09-25T23:50:26.422Z,11.50
2018-09-25T23:53:05.703Z,13.70
2018-09-25T23:55:44.157Z,13.17
2018-09-25T23:58:22.862Z,12.23
